createdAt,value
2018-07-23T00:00:33.789Z,3.73
2018-07-23T00:03:29.924Z,3.60
2018-07-23T00:06:26.288Z,3.52
2018-07-23T00:09:22.424Z,3.70
2018-07-23T00:12:18.775Z,4.30
2018-07-23T00:15:15.479Z,3.80
2018-07-23T00:18:12.109Z,4.40
2018-07-23T00:21:08.760Z,6.53
2018-07-23T00:24:05.369Z,3.80
2018-07-23T00:27:01.828Z,3.37
2018-07-23T00:29:58.033Z,3.50
2018-07-23T00:32:54.004Z,3.53
2018-07-23T00:35:50.051Z,3.97
2018-07-23T00:38:46.400Z,4.70
2018-07-23T00:41:42.826Z,3.90
2018-07-23T00:44:39.635Z,7.17
2018-07-23T00:47:35.724Z,5.55
2018-07-23T00:50:32.113Z,7.47
2018-07-23T00:53:28.165Z,6.17
2018-07-23T00:56:24.490Z,4.87
2018-07-23T00:59:21.008Z,7.53
2018-07-23T01:02:17.059Z,5.33
2018-07-23T01:05:13.423Z,4.80
2018-07-23T01:08:09.763Z,4.60
2018-07-23T01:11:06.674Z,4.50
2018-07-23T01:14:02.734Z,4.20
2018-07-23T01:16:59.072Z,6.80
2018-07-23T01:19:56.107Z,5.70
2018-07-23T01:22:52.063Z,4.43
2018-07-23T01:25:48.106Z,6.50
2018-07-23T01:28:44.247Z,6.77
2018-07-23T01:31:40.295Z,6.10
2018-07-23T01:34:36.641Z,7.05
2018-07-23T01:37:32.988Z,6.63
2018-07-23T01:40:29.077Z,6.60
2018-07-23T01:43:25.417Z,7.33
2018-07-23T01:46:21.459Z,5.60
2018-07-23T01:49:17.899Z,7.12
2018-07-23T01:52:14.604Z,9.18
2018-07-23T01:55:11.260Z,6.42
2018-07-23T01:58:07.928Z,6.12
2018-07-23T02:01:11.315Z,7.70
2018-07-23T02:04:07.938Z,9.18
2018-07-23T02:07:04.999Z,6.62
2018-07-23T02:10:01.341Z,7.60
2018-07-23T02:12:57.695Z,5.83
2018-07-23T02:15:54.491Z,5.60
2018-07-23T02:18:50.745Z,6.90
2018-07-23T02:21:47.080Z,5.30
2018-07-23T02:24:43.143Z,7.03
2018-07-23T02:27:39.497Z,8.55
2018-07-23T02:30:35.574Z,7.57
2018-07-23T02:33:31.665Z,5.00
2018-07-23T02:36:28.005Z,10.20
2018-07-23T02:39:24.193Z,6.67
2018-07-23T02:42:20.232Z,7.47
2018-07-23T02:45:16.581Z,7.42
2018-07-23T02:48:13.299Z,7.72
2018-07-23T02:51:09.791Z,9.70
2018-07-23T02:54:06.321Z,7.70
2018-07-23T02:57:02.809Z,8.20
2018-07-23T02:59:58.927Z,7.83
2018-07-23T03:02:55.250Z,8.95
2018-07-23T03:05:51.332Z,7.30
2018-07-23T03:08:47.680Z,7.87
2018-07-23T03:11:43.743Z,8.43
2018-07-23T03:14:39.839Z,8.63
2018-07-23T03:17:36.185Z,9.50
2018-07-23T03:20:32.572Z,7.87
2018-07-23T03:23:28.618Z,7.00
2018-07-23T03:26:24.700Z,10.33
2018-07-23T03:29:21.170Z,10.93
2018-07-23T03:32:17.678Z,11.15
2018-07-23T03:35:13.867Z,8.70
2018-07-23T03:38:10.128Z,7.35
2018-07-23T03:41:06.302Z,11.53
2018-07-23T03:44:02.657Z,7.28
2018-07-23T03:46:59.000Z,6.85
2018-07-23T03:49:55.196Z,9.45
2018-07-23T03:52:51.531Z,7.55
2018-07-23T03:55:47.856Z,6.70
2018-07-23T03:58:44.527Z,9.33
2018-07-23T04:01:41.254Z,6.90
2018-07-23T04:04:37.891Z,5.80
2018-07-23T04:07:34.485Z,7.00
2018-07-23T04:10:31.186Z,8.08
2018-07-23T04:13:27.517Z,5.90
2018-07-23T04:16:24.151Z,8.13
2018-07-23T04:19:20.804Z,7.47
2018-07-23T04:22:17.245Z,5.37
2018-07-23T04:25:13.313Z,5.53
2018-07-23T04:28:09.667Z,6.90
2018-07-23T04:31:06.365Z,7.00
2018-07-23T04:34:02.424Z,5.83
2018-07-23T04:36:58.780Z,5.67
2018-07-23T04:39:54.974Z,5.67
2018-07-23T04:42:51.312Z,6.33
2018-07-23T04:45:47.395Z,6.53
2018-07-23T04:48:43.478Z,5.87
2018-07-23T04:51:39.871Z,8.53
2018-07-23T04:54:35.920Z,5.77
2018-07-23T04:57:32.280Z,6.00
2018-07-23T05:00:28.787Z,6.10
2018-07-23T05:22:38.187Z,5.04
2018-07-23T05:25:34.284Z,3.41
2018-07-23T05:28:30.389Z,4.46
2018-07-23T05:31:27.157Z,4.89
2018-07-23T05:34:23.309Z,3.50
2018-07-23T05:37:19.705Z,5.49
2018-07-23T05:40:16.493Z,6.01
2018-07-23T05:43:12.905Z,5.21
2018-07-23T05:46:08.997Z,3.64
2018-07-23T05:49:05.508Z,3.15
2018-07-23T05:52:01.600Z,2.62
2018-07-23T05:54:58.073Z,2.60
2018-07-23T05:57:54.859Z,3.12
2018-07-23T06:00:50.917Z,2.04
2018-07-23T06:03:47.073Z,2.50
2018-07-23T06:06:43.208Z,2.62
2018-07-23T06:09:38.983Z,2.20
2018-07-23T06:12:35.912Z,2.78
2018-07-23T06:15:33.480Z,2.34
2018-07-23T06:18:29.692Z,2.67
2018-07-23T06:21:26.073Z,2.53
2018-07-23T06:24:22.000Z,2.50
2018-07-23T06:27:17.995Z,2.61
2018-07-23T06:30:14.365Z,2.34
2018-07-23T06:33:12.483Z,1.95
2018-07-23T06:36:08.569Z,5.06
2018-07-23T06:39:07.858Z,3.48
2018-07-23T06:42:04.255Z,2.42
2018-07-23T06:45:01.098Z,2.79
2018-07-23T06:47:58.395Z,2.81
2018-07-23T06:50:54.771Z,4.17
2018-07-23T06:53:50.895Z,4.00
2018-07-23T06:56:47.423Z,4.20
2018-07-23T06:59:43.778Z,3.56
2018-07-23T07:02:40.193Z,2.13
2018-07-23T07:05:36.334Z,2.87
2018-07-23T07:08:33.190Z,2.63
2018-07-23T07:11:29.916Z,1.51
2018-07-23T07:14:26.917Z,1.65
2018-07-23T07:17:23.614Z,1.70
2018-07-23T07:20:19.717Z,2.21
2018-07-23T07:23:16.378Z,1.72
2018-07-23T07:26:12.805Z,1.97
2018-07-23T07:29:08.903Z,1.70
2018-07-23T07:32:04.749Z,1.75
2018-07-23T07:35:03.134Z,1.74
2018-07-23T07:37:59.629Z,1.82
2018-07-23T07:40:55.627Z,2.16
2018-07-23T07:43:52.184Z,2.01
2018-07-23T07:46:48.280Z,4.03
2018-07-23T07:49:45.055Z,2.16
2018-07-23T07:52:41.986Z,2.07
2018-07-23T07:55:38.025Z,2.10
2018-07-23T07:58:34.155Z,1.38
2018-07-23T08:01:30.886Z,1.73
2018-07-23T08:04:28.818Z,2.08
2018-07-23T08:07:25.635Z,2.45
2018-07-23T08:10:21.793Z,3.07
2018-07-23T08:13:18.313Z,2.17
2018-07-23T08:16:15.120Z,2.31
2018-07-23T08:19:11.214Z,2.30
2018-07-23T08:22:08.153Z,2.42
2018-07-23T08:25:04.806Z,2.24
2018-07-23T08:28:00.945Z,1.97
2018-07-23T08:30:57.407Z,1.77
2018-07-23T08:33:54.143Z,1.81
2018-07-23T08:36:50.547Z,2.05
2018-07-23T08:39:46.629Z,1.71
2018-07-23T08:42:42.718Z,2.42
2018-07-23T08:45:39.288Z,2.00
2018-07-23T08:48:36.050Z,2.76
2018-07-23T08:51:32.603Z,2.18
2018-07-23T08:54:28.747Z,1.97
2018-07-23T08:57:25.279Z,3.77
2018-07-23T09:00:21.364Z,2.61
2018-07-23T09:03:17.421Z,2.98
2018-07-23T09:06:14.171Z,1.92
2018-07-23T09:09:11.152Z,2.54
2018-07-23T09:12:07.479Z,2.54
2018-07-23T09:15:03.589Z,2.42
2018-07-23T09:17:59.683Z,3.08
2018-07-23T09:20:56.520Z,2.25
2018-07-23T09:23:53.005Z,2.48
2018-07-23T09:26:49.646Z,2.08
2018-07-23T09:29:46.094Z,3.85
2018-07-23T09:32:42.182Z,3.27
2018-07-23T09:35:38.915Z,1.98
2018-07-23T09:38:35.324Z,2.25
2018-07-23T09:41:39.169Z,2.44
2018-07-23T09:44:35.881Z,2.91
2018-07-23T09:47:32.265Z,2.81
2018-07-23T09:50:28.399Z,2.30
2018-07-23T09:53:25.148Z,2.12
2018-07-23T09:56:21.402Z,2.15
2018-07-23T09:59:17.494Z,2.97
2018-07-23T10:02:14.216Z,2.59
2018-07-23T10:05:10.328Z,3.34
2018-07-23T10:08:06.423Z,1.95
2018-07-23T10:11:02.560Z,2.26
2018-07-23T10:13:58.630Z,3.07
2018-07-23T10:16:54.671Z,2.49
2018-07-23T10:19:50.958Z,3.73
2018-07-23T10:22:47.349Z,2.32
2018-07-23T10:25:45.561Z,2.33
2018-07-23T10:28:41.986Z,2.22
2018-07-23T10:31:38.054Z,2.29
2018-07-23T10:34:34.549Z,2.19
2018-07-23T10:37:30.622Z,2.18
2018-07-23T10:40:27.140Z,2.52
2018-07-23T10:43:23.208Z,2.37
2018-07-23T10:46:19.009Z,2.67
2018-07-23T10:49:14.958Z,2.58
2018-07-23T10:52:10.755Z,2.35
2018-07-23T10:55:06.514Z,2.37
2018-07-23T10:58:02.674Z,2.84
2018-07-23T11:00:59.262Z,2.78
2018-07-23T11:03:56.343Z,2.25
2018-07-23T11:06:52.446Z,2.33
2018-07-23T11:09:48.694Z,2.53
2018-07-23T11:12:44.732Z,2.55
2018-07-23T11:15:41.259Z,2.52
2018-07-23T11:18:37.402Z,3.21
2018-07-23T11:21:33.457Z,3.48
2018-07-23T11:24:29.877Z,2.25
2018-07-23T11:27:25.943Z,2.96
2018-07-23T11:30:22.402Z,2.92
2018-07-23T11:33:18.454Z,2.91
2018-07-23T11:36:14.526Z,2.66
2018-07-23T11:39:12.004Z,2.40
2018-07-23T11:42:08.066Z,2.28
2018-07-23T11:45:04.226Z,3.53
2018-07-23T11:48:00.625Z,2.33
2018-07-23T11:50:56.698Z,2.29
2018-07-23T11:53:52.775Z,2.43
2018-07-23T11:56:49.370Z,2.42
2018-07-23T11:59:45.365Z,2.13
2018-07-23T12:02:41.465Z,2.57
2018-07-23T12:05:38.391Z,2.33
2018-07-23T12:08:34.651Z,3.02
2018-07-23T12:11:30.689Z,2.09
2018-07-23T12:14:26.675Z,3.02
2018-07-23T12:17:23.237Z,2.85
2018-07-23T12:20:19.260Z,4.09
2018-07-23T12:23:15.835Z,2.27
2018-07-23T12:26:12.574Z,3.04
2018-07-23T12:29:08.979Z,2.60
2018-07-23T12:32:05.728Z,2.87
2018-07-23T12:35:02.279Z,2.65
2018-07-23T12:37:58.575Z,2.60
2018-07-23T12:40:54.443Z,2.62
2018-07-23T12:43:50.658Z,2.54
2018-07-23T12:46:47.063Z,2.32
2018-07-23T12:49:43.122Z,2.11
2018-07-23T12:52:39.668Z,2.01
2018-07-23T12:55:35.711Z,2.42
2018-07-23T12:58:32.223Z,2.08
2018-07-23T13:01:28.328Z,2.76
2018-07-23T13:04:25.076Z,2.60
2018-07-23T13:08:19.263Z,2.42
2018-07-23T13:11:15.679Z,2.36
2018-07-23T13:14:12.078Z,2.29
2018-07-23T13:17:08.542Z,2.84
2018-07-23T13:20:04.702Z,2.13
2018-07-23T13:23:00.856Z,4.28
2018-07-23T13:25:57.359Z,2.44
2018-07-23T13:28:53.452Z,2.51
2018-07-23T13:31:49.526Z,2.70
2018-07-23T13:34:46.349Z,2.64
2018-07-23T13:37:42.951Z,3.06
2018-07-23T13:40:39.088Z,2.29
2018-07-23T13:43:34.800Z,2.79
2018-07-23T13:46:30.523Z,2.83
2018-07-23T13:49:26.873Z,2.13
2018-07-23T13:52:23.280Z,2.76
2018-07-23T13:55:19.381Z,3.11
2018-07-23T13:58:15.531Z,1.70
2018-07-23T14:01:12.061Z,1.91
2018-07-23T14:04:08.487Z,2.57
2018-07-23T14:07:04.587Z,2.46
2018-07-23T14:10:01.037Z,3.19
2018-07-23T14:12:57.106Z,2.20
2018-07-23T14:15:53.578Z,2.28
2018-07-23T14:18:49.690Z,2.48
2018-07-23T14:21:45.770Z,2.69
2018-07-23T14:24:41.888Z,2.42
2018-07-23T14:27:38.350Z,2.43
2018-07-23T14:30:34.418Z,2.63
2018-07-23T14:33:31.037Z,2.58
2018-07-23T14:36:31.304Z,2.54
2018-07-23T14:39:27.101Z,2.42
2018-07-23T14:42:22.864Z,2.62
2018-07-23T14:45:18.876Z,2.54
2018-07-23T14:48:15.414Z,2.96
2018-07-23T14:51:11.544Z,2.95
2018-07-23T14:54:07.833Z,3.02
2018-07-23T14:57:04.076Z,2.96
2018-07-23T15:00:00.148Z,3.68
2018-07-23T15:02:56.360Z,2.50
2018-07-23T15:05:52.380Z,2.62
2018-07-23T15:08:48.456Z,3.76
2018-07-23T15:11:44.541Z,2.17
2018-07-23T15:14:40.662Z,2.37
2018-07-23T15:17:36.746Z,2.58
2018-07-23T15:20:32.835Z,2.41
2018-07-23T15:23:31.604Z,2.98
2018-07-23T15:26:28.398Z,3.20
2018-07-23T15:29:24.628Z,2.67
2018-07-23T15:32:21.059Z,2.62
2018-07-23T15:35:17.157Z,2.45
2018-07-23T15:38:13.635Z,1.80
2018-07-23T15:41:10.157Z,1.90
2018-07-23T15:44:06.538Z,2.29
2018-07-23T15:47:02.341Z,1.92
2018-07-23T15:49:58.412Z,1.92
2018-07-23T15:52:54.889Z,2.12
2018-07-23T15:55:51.276Z,2.95
2018-07-23T15:58:47.711Z,2.28
2018-07-23T16:01:43.772Z,2.57
2018-07-23T16:04:40.351Z,2.23
2018-07-23T16:07:36.440Z,2.21
2018-07-23T16:10:32.510Z,2.40
2018-07-23T16:13:29.316Z,2.30
2018-07-23T16:16:26.164Z,2.58
2018-07-23T16:19:22.420Z,3.41
2018-07-23T16:22:19.049Z,2.81
2018-07-23T16:25:15.253Z,3.12
2018-07-23T16:28:12.162Z,2.05
2018-07-23T16:31:08.920Z,1.82
2018-07-23T16:34:05.092Z,2.56
2018-07-23T16:37:01.231Z,2.94
2018-07-23T16:39:57.363Z,2.11
2018-07-23T16:42:53.486Z,1.93
2018-07-23T16:45:50.992Z,2.12
2018-07-23T16:48:47.363Z,3.22
2018-07-23T16:51:43.801Z,2.02
2018-07-23T16:54:39.900Z,1.87
2018-07-23T16:57:36.058Z,2.56
2018-07-23T17:00:32.533Z,1.69
2018-07-23T17:03:29.028Z,1.69
2018-07-23T17:06:25.410Z,1.82
2018-07-23T17:09:21.497Z,1.52
2018-07-23T17:12:18.020Z,1.83
2018-07-23T17:15:14.449Z,1.65
2018-07-23T17:18:10.746Z,1.90
2018-07-23T17:21:07.742Z,1.64
2018-07-23T17:24:06.028Z,2.25
2018-07-23T17:27:02.661Z,2.22
2018-07-23T17:29:58.737Z,1.67
2018-07-23T17:32:55.485Z,1.93
2018-07-23T17:35:51.584Z,1.70
2018-07-23T17:38:47.699Z,1.85
2018-07-23T17:41:44.204Z,2.16
2018-07-23T17:44:42.013Z,2.52
2018-07-23T17:47:38.089Z,1.60
2018-07-23T17:50:34.958Z,1.67
2018-07-23T17:53:31.801Z,1.81
2018-07-23T17:56:28.009Z,1.68
2018-07-23T17:59:24.500Z,1.74
2018-07-23T18:02:21.177Z,2.96
2018-07-23T18:05:17.493Z,2.12
2018-07-23T18:08:13.551Z,2.23
2018-07-23T18:11:09.676Z,2.34
2018-07-23T18:14:06.787Z,2.01
2018-07-23T18:17:02.890Z,1.80
2018-07-23T18:19:59.324Z,1.91
2018-07-23T18:22:55.417Z,1.91
2018-07-23T18:25:51.952Z,2.44
2018-07-23T18:28:48.206Z,2.09
2018-07-23T18:31:44.578Z,1.78
2018-07-23T18:34:40.662Z,2.08
2018-07-23T18:37:37.076Z,2.60
2018-07-23T18:40:33.171Z,1.67
2018-07-23T18:43:29.236Z,1.90
2018-07-23T18:46:25.791Z,1.67
2018-07-23T18:49:48.389Z,2.17
2018-07-23T18:52:44.458Z,1.96
2018-07-23T18:55:41.019Z,1.59
2018-07-23T18:58:37.224Z,1.87
2018-07-23T19:01:33.611Z,1.62
2018-07-23T19:04:29.713Z,1.68
2018-07-23T19:07:26.196Z,2.11
2018-07-23T19:10:22.888Z,1.82
2018-07-23T19:13:18.964Z,1.79
2018-07-23T19:16:15.386Z,1.54
2018-07-23T19:19:11.561Z,1.73
2018-07-23T19:22:07.981Z,1.64
2018-07-23T19:25:04.102Z,1.64
2018-07-23T19:28:04.546Z,1.75
2018-07-23T19:31:00.925Z,1.50
2018-07-23T19:33:58.043Z,1.37
2018-07-23T19:36:54.065Z,1.20
2018-07-23T19:39:50.105Z,1.44
2018-07-23T19:42:46.548Z,1.61
2018-07-23T19:45:42.817Z,1.81
2018-07-23T19:48:39.809Z,1.42
2018-07-23T19:51:36.557Z,1.25
2018-07-23T19:54:32.624Z,1.94
2018-07-23T19:57:29.086Z,1.84
2018-07-23T20:00:25.346Z,1.67
2018-07-23T20:03:21.765Z,1.45
2018-07-23T20:06:21.970Z,1.47
2018-07-23T20:09:18.359Z,1.41
2018-07-23T20:12:15.122Z,1.37
2018-07-23T20:15:11.301Z,1.80
2018-07-23T20:18:07.691Z,1.28
2018-07-23T20:21:03.850Z,2.83
2018-07-23T20:24:00.303Z,1.40
2018-07-23T20:26:56.421Z,1.87
2018-07-23T20:29:52.802Z,1.65
2018-07-23T20:32:49.046Z,1.79
2018-07-23T20:35:45.566Z,1.99
2018-07-23T20:38:41.619Z,2.05
2018-07-23T20:41:38.162Z,1.39
2018-07-23T20:44:34.871Z,1.15
2018-07-23T20:47:31.052Z,3.51
2018-07-23T20:50:27.384Z,2.11
2018-07-23T20:53:23.466Z,2.04
2018-07-23T20:56:19.549Z,1.79
2018-07-23T20:59:16.389Z,1.78
2018-07-23T21:02:12.549Z,1.68
2018-07-23T21:05:08.676Z,1.80
2018-07-23T21:08:05.203Z,2.04
2018-07-23T21:11:01.733Z,1.75
2018-07-23T21:13:57.553Z,1.82
2018-07-23T21:16:53.523Z,1.98
2018-07-23T21:19:49.936Z,1.67
2018-07-23T21:22:46.107Z,2.52
2018-07-23T21:25:42.508Z,1.67
2018-07-23T21:28:38.566Z,2.17
2018-07-23T21:31:34.953Z,1.67
2018-07-23T21:34:31.221Z,1.57
2018-07-23T21:37:27.597Z,1.73
2018-07-23T21:40:24.147Z,1.95
2018-07-23T21:43:22.481Z,1.86
2018-07-23T21:46:18.844Z,1.77
2018-07-23T21:49:14.915Z,1.66
2018-07-23T21:52:12.114Z,2.08
2018-07-23T21:55:08.510Z,1.80
2018-07-23T21:58:04.578Z,2.37
2018-07-23T22:01:00.956Z,1.92
2018-07-23T22:03:56.798Z,1.82
2018-07-23T22:06:52.812Z,2.00
2018-07-23T22:09:48.865Z,1.80
2018-07-23T22:12:45.291Z,2.02
2018-07-23T22:15:41.132Z,1.89
2018-07-23T22:18:37.851Z,1.84
2018-07-23T22:21:34.632Z,1.72
2018-07-23T22:24:31.491Z,1.75
2018-07-23T22:27:27.971Z,1.90
2018-07-23T22:30:24.046Z,1.95
2018-07-23T22:33:20.168Z,2.30
2018-07-23T22:36:16.344Z,2.16
2018-07-23T22:39:12.881Z,1.95
2018-07-23T22:42:08.896Z,1.85
2018-07-23T22:45:06.182Z,3.08
2018-07-23T22:48:02.404Z,1.87
2018-07-23T22:50:58.868Z,1.89
2018-07-23T22:53:55.041Z,2.60
2018-07-23T22:56:51.095Z,2.12
2018-07-23T22:59:47.468Z,2.15
2018-07-23T23:02:43.534Z,2.00
2018-07-23T23:05:39.933Z,2.73
2018-07-23T23:08:35.978Z,2.80
2018-07-23T23:11:32.037Z,2.58
2018-07-23T23:14:28.445Z,2.09
2018-07-23T23:17:24.526Z,2.00
2018-07-23T23:20:20.624Z,1.72
2018-07-23T23:23:16.631Z,2.22
2018-07-23T23:26:12.679Z,2.10
2018-07-23T23:29:09.054Z,1.98
2018-07-23T23:32:05.112Z,2.36
2018-07-23T23:35:02.290Z,2.50
2018-07-23T23:37:58.326Z,2.10
2018-07-23T23:40:54.373Z,3.63
2018-07-23T23:43:50.755Z,2.31
2018-07-23T23:46:46.800Z,2.20
2018-07-23T23:49:42.872Z,2.56
2018-07-23T23:52:38.722Z,2.29
2018-07-23T23:55:34.760Z,2.35
2018-07-23T23:58:31.984Z,1.92
